sensor_id;sensor_type;location;lat;lon;timestamp;P1;durP1;ratioP1;P2;durP2;ratioP2
357;SDS011;167;47.558;7.602;2023-04-06T00:00:56;4.53;;;4.13;;
357;SDS011;167;47.558;7.602;2023-04-06T00:03:22;5.63;;;4.93;;
357;SDS011;167;47.558;7.602;2023-04-06T00:05:48;4.83;;;4.43;;
357;SDS011;167;47.558;7.602;2023-04-06T00:08:14;3.87;;;3.57;;
357;SDS011;167;47.558;7.602;2023-04-06T00:10:40;4.37;;;4.03;;
357;SDS011;167;47.558;7.602;2023-04-06T00:13:07;5.30;;;4.90;;
357;SDS011;167;47.558;7.602;2023-04-06T00:15:33;5.07;;;4.67;;
357;SDS011;167;47.558;7.602;2023-04-06T00:17:59;5.10;;;4.70;;
357;SDS011;167;47.558;7.602;2023-04-06T00:20:25;7.47;;;4.50;;
357;SDS011;167;47.558;7.602;2023-04-06T00:22:51;4.90;;;4.40;;
357;SDS011;167;47.558;7.602;2023-04-06T00:25:18;4.53;;;4.23;;
357;SDS011;167;47.558;7.602;2023-04-06T00:27:45;6.00;;;4.60;;
357;SDS011;167;47.558;7.602;2023-04-06T00:30:11;4.50;;;4.10;;
357;SDS011;167;47.558;7.602;2023-04-06T00:32:37;4.60;;;4.27;;
357;SDS011;167;47.558;7.602;2023-04-06T00:35:03;3.83;;;3.57;;
357;SDS011;167;47.558;7.602;2023-04-06T00:37:29;4.47;;;4.07;;
357;SDS011;167;47.558;7.602;2023-04-06T00:39:55;5.23;;;4.73;;
357;SDS011;167;47.558;7.602;2023-04-06T00:42:21;4.87;;;4.33;;
357;SDS011;167;47.558;7.602;2023-04-06T00:45:00;4.63;;;4.30;;
357;SDS011;167;47.558;7.602;2023-04-06T00:47:26;4.67;;;4.17;;
357;SDS011;167;47.558;7.602;2023-04-06T00:49:53;5.30;;;4.90;;
357;SDS011;167;47.558;7.602;2023-04-06T00:52:19;5.00;;;4.50;;
357;SDS011;167;47.558;7.602;2023-04-06T00:54:46;4.10;;;3.80;;
357;SDS011;167;47.558;7.602;2023-04-06T00:57:12;4.80;;;4.40;;
357;SDS011;167;47.558;7.602;2023-04-06T00:59:38;4.67;;;4.27;;
357;SDS011;167;47.558;7.602;2023-04-06T01:02:05;4.93;;;4.30;;
357;SDS011;167;47.558;7.602;2023-04-06T01:04:31;6.53;;;4.60;;
357;SDS011;167;47.558;7.602;2023-04-06T01:06:57;4.43;;;4.13;;
357;SDS011;167;47.558;7.602;2023-04-06T01:09:23;4.80;;;4.27;;
357;SDS011;167;47.558;7.602;2023-04-06T01:11:49;4.23;;;3.93;;
357;SDS011;167;47.558;7.602;2023-04-06T01:14:15;3.60;;;3.40;;
357;SDS011;167;47.558;7.602;2023-04-06T01:16:41;8.43;;;5.67;;
357;SDS011;167;47.558;7.602;2023-04-06T01:19:11;5.30;;;4.90;;
357;SDS011;167;47.558;7.602;2023-04-06T01:21:38;6.40;;;5.90;;
357;SDS011;167;47.558;7.602;2023-04-06T01:24:04;5.13;;;4.73;;
357;SDS011;167;47.558;7.602;2023-04-06T01:26:31;6.30;;;5.10;;
357;SDS011;167;47.558;7.602;2023-04-06T01:28:57;6.43;;;5.10;;
357;SDS011;167;47.558;7.602;2023-04-06T01:31:23;8.63;;;5.73;;
357;SDS011;167;47.558;7.602;2023-04-06T01:33:49;4.97;;;4.60;;
357;SDS011;167;47.558;7.602;2023-04-06T01:36:15;5.67;;;5.27;;
357;SDS011;167;47.558;7.602;2023-04-06T01:38:41;6.10;;;5.50;;
357;SDS011;167;47.558;7.602;2023-04-06T01:41:07;5.13;;;4.73;;
357;SDS011;167;47.558;7.602;2023-04-06T01:43:33;5.00;;;4.63;;
357;SDS011;167;47.558;7.602;2023-04-06T01:45:59;5.33;;;4.83;;
357;SDS011;167;47.558;7.602;2023-04-06T01:48:26;4.20;;;3.93;;
357;SDS011;167;47.558;7.602;2023-04-06T01:50:52;4.73;;;4.40;;
357;SDS011;167;47.558;7.602;2023-04-06T01:53:18;4.83;;;4.53;;
357;SDS011;167;47.558;7.602;2023-04-06T01:55:44;5.40;;;4.57;;
357;SDS011;167;47.558;7.602;2023-04-06T01:58:10;5.33;;;4.83;;
357;SDS011;167;47.558;7.602;2023-04-06T02:00:36;5.50;;;5.03;;
357;SDS011;167;47.558;7.602;2023-04-06T02:03:02;4.43;;;4.17;;
357;SDS011;167;47.558;7.602;2023-04-06T02:05:29;5.47;;;4.97;;
357;SDS011;167;47.558;7.602;2023-04-06T02:07:55;6.93;;;4.50;;
357;SDS011;167;47.558;7.602;2023-04-06T02:10:21;4.83;;;4.53;;
357;SDS011;167;47.558;7.602;2023-04-06T02:12:47;4.70;;;4.30;;
357;SDS011;167;47.558;7.602;2023-04-06T02:15:14;4.80;;;4.50;;
357;SDS011;167;47.558;7.602;2023-04-06T02:17:40;6.07;;;4.83;;
357;SDS011;167;47.558;7.602;2023-04-06T02:20:06;4.63;;;4.23;;
357;SDS011;167;47.558;7.602;2023-04-06T02:22:34;5.43;;;4.60;;
357;SDS011;167;47.558;7.602;2023-04-06T02:25:00;4.97;;;4.67;;
357;SDS011;167;47.558;7.602;2023-04-06T02:27:26;4.73;;;4.43;;
357;SDS011;167;47.558;7.602;2023-04-06T02:29:52;5.83;;;5.33;;
357;SDS011;167;47.558;7.602;2023-04-06T02:32:18;5.40;;;4.93;;
357;SDS011;167;47.558;7.602;2023-04-06T02:34:45;4.53;;;4.20;;
357;SDS011;167;47.558;7.602;2023-04-06T02:37:10;5.20;;;4.80;;
357;SDS011;167;47.558;7.602;2023-04-06T02:39:36;5.10;;;4.70;;
357;SDS011;167;47.558;7.602;2023-04-06T02:42:02;4.73;;;4.43;;
357;SDS011;167;47.558;7.602;2023-04-06T02:44:29;4.77;;;4.37;;
357;SDS011;167;47.558;7.602;2023-04-06T02:46:55;5.27;;;4.70;;
357;SDS011;167;47.558;7.602;2023-04-06T02:49:21;4.97;;;4.47;;
357;SDS011;167;47.558;7.602;2023-04-06T02:51:47;4.70;;;4.30;;
357;SDS011;167;47.558;7.602;2023-04-06T02:54:13;6.20;;;5.60;;
357;SDS011;167;47.558;7.602;2023-04-06T02:56:39;4.40;;;4.10;;
357;SDS011;167;47.558;7.602;2023-04-06T02:59:05;5.63;;;5.23;;
357;SDS011;167;47.558;7.602;2023-04-06T03:01:31;4.80;;;4.40;;
357;SDS011;167;47.558;7.602;2023-04-06T03:03:57;5.80;;;5.30;;
357;SDS011;167;47.558;7.602;2023-04-06T03:06:23;5.27;;;4.87;;
357;SDS011;167;47.558;7.602;2023-04-06T03:08:49;4.63;;;4.23;;
357;SDS011;167;47.558;7.602;2023-04-06T03:11:15;5.47;;;4.97;;
357;SDS011;167;47.558;7.602;2023-04-06T03:13:41;5.33;;;4.80;;
357;SDS011;167;47.558;7.602;2023-04-06T03:16:07;5.17;;;4.77;;
357;SDS011;167;47.558;7.602;2023-04-06T03:18:33;6.43;;;5.93;;
357;SDS011;167;47.558;7.602;2023-04-06T03:20:59;4.87;;;4.50;;
357;SDS011;167;47.558;7.602;2023-04-06T03:23:25;5.30;;;4.47;;
357;SDS011;167;47.558;7.602;2023-04-06T03:25:51;5.53;;;5.00;;
357;SDS011;167;47.558;7.602;2023-04-06T03:28:18;5.50;;;5.10;;
357;SDS011;167;47.558;7.602;2023-04-06T03:30:44;4.87;;;4.57;;
357;SDS011;167;47.558;7.602;2023-04-06T03:33:10;5.70;;;5.20;;
357;SDS011;167;47.558;7.602;2023-04-06T03:35:36;5.33;;;4.93;;
357;SDS011;167;47.558;7.602;2023-04-06T03:38:03;5.53;;;5.10;;
357;SDS011;167;47.558;7.602;2023-04-06T03:40:29;5.03;;;4.63;;
357;SDS011;167;47.558;7.602;2023-04-06T03:42:55;5.83;;;4.93;;
357;SDS011;167;47.558;7.602;2023-04-06T03:45:21;4.50;;;4.20;;
357;SDS011;167;47.558;7.602;2023-04-06T03:47:47;4.80;;;4.40;;
357;SDS011;167;47.558;7.602;2023-04-06T03:50:13;4.80;;;4.40;;
357;SDS011;167;47.558;7.602;2023-04-06T03:52:39;4.30;;;4.00;;
357;SDS011;167;47.558;7.602;2023-04-06T03:55:06;5.03;;;4.43;;
357;SDS011;167;47.558;7.602;2023-04-06T03:57:32;6.63;;;4.50;;
357;SDS011;167;47.558;7.602;2023-04-06T03:59:58;4.83;;;4.43;;
357;SDS011;167;47.558;7.602;2023-04-06T04:02:24;5.40;;;5.00;;
357;SDS011;167;47.558;7.602;2023-04-06T04:04:50;6.70;;;4.53;;
357;SDS011;167;47.558;7.602;2023-04-06T04:07:16;5.17;;;4.77;;
357;SDS011;167;47.558;7.602;2023-04-06T04:09:42;5.50;;;4.77;;
357;SDS011;167;47.558;7.602;2023-04-06T04:12:08;4.33;;;4.03;;
357;SDS011;167;47.558;7.602;2023-04-06T04:14:34;5.70;;;4.77;;
357;SDS011;167;47.558;7.602;2023-04-06T04:17:00;6.20;;;5.60;;
357;SDS011;167;47.558;7.602;2023-04-06T04:19:26;6.67;;;4.83;;
357;SDS011;167;47.558;7.602;2023-04-06T04:21:52;5.47;;;4.97;;
357;SDS011;167;47.558;7.602;2023-04-06T04:24:18;5.60;;;5.20;;
357;SDS011;167;47.558;7.602;2023-04-06T04:26:44;6.20;;;5.67;;
357;SDS011;167;47.558;7.602;2023-04-06T04:29:10;4.90;;;4.50;;
357;SDS011;167;47.558;7.602;2023-04-06T04:31:36;4.33;;;3.93;;
357;SDS011;167;47.558;7.602;2023-04-06T04:34:02;4.93;;;4.53;;
357;SDS011;167;47.558;7.602;2023-04-06T04:36:28;5.53;;;5.03;;
357;SDS011;167;47.558;7.602;2023-04-06T04:38:55;4.30;;;3.87;;
357;SDS011;167;47.558;7.602;2023-04-06T04:41:21;8.47;;;4.20;;
357;SDS011;167;47.558;7.602;2023-04-06T04:43:47;7.87;;;5.30;;
357;SDS011;167;47.558;7.602;2023-04-06T04:46:13;6.30;;;5.00;;
357;SDS011;167;47.558;7.602;2023-04-06T04:48:38;4.97;;;4.57;;
357;SDS011;167;47.558;7.602;2023-04-06T04:51:04;5.40;;;4.43;;
357;SDS011;167;47.558;7.602;2023-04-06T04:53:30;5.70;;;5.20;;
357;SDS011;167;47.558;7.602;2023-04-06T04:55:56;5.70;;;5.10;;
357;SDS011;167;47.558;7.602;2023-04-06T04:58:23;4.40;;;4.00;;
357;SDS011;167;47.558;7.602;2023-04-06T05:00:48;5.33;;;4.93;;
357;SDS011;167;47.558;7.602;2023-04-06T05:03:19;5.63;;;5.10;;
357;SDS011;167;47.558;7.602;2023-04-06T05:05:46;5.60;;;5.10;;
357;SDS011;167;47.558;7.602;2023-04-06T05:08:12;6.30;;;5.70;;
357;SDS011;167;47.558;7.602;2023-04-06T05:10:38;5.13;;;4.63;;
357;SDS011;167;47.558;7.602;2023-04-06T05:13:05;5.10;;;4.70;;
357;SDS011;167;47.558;7.602;2023-04-06T05:15:31;5.53;;;4.47;;
357;SDS011;167;47.558;7.602;2023-04-06T05:17:59;6.03;;;5.43;;
357;SDS011;167;47.558;7.602;2023-04-06T05:20:25;4.70;;;4.20;;
357;SDS011;167;47.558;7.602;2023-04-06T05:22:51;5.47;;;4.97;;
357;SDS011;167;47.558;7.602;2023-04-06T05:25:17;5.20;;;4.60;;
357;SDS011;167;47.558;7.602;2023-04-06T05:27:43;6.37;;;5.73;;
357;SDS011;167;47.558;7.602;2023-04-06T05:30:09;7.00;;;5.70;;
357;SDS011;167;47.558;7.602;2023-04-06T05:32:35;6.07;;;5.33;;
357;SDS011;167;47.558;7.602;2023-04-06T05:35:01;7.83;;;5.73;;
357;SDS011;167;47.558;7.602;2023-04-06T05:37:27;6.50;;;5.40;;
357;SDS011;167;47.558;7.602;2023-04-06T05:39:53;7.10;;;6.47;;
357;SDS011;167;47.558;7.602;2023-04-06T05:42:19;6.70;;;5.50;;
357;SDS011;167;47.558;7.602;2023-04-06T05:44:45;6.87;;;5.10;;
357;SDS011;167;47.558;7.602;2023-04-06T05:47:11;8.80;;;5.80;;
357;SDS011;167;47.558;7.602;2023-04-06T05:49:37;9.47;;;6.23;;
357;SDS011;167;47.558;7.602;2023-04-06T05:52:03;5.67;;;4.80;;
357;SDS011;167;47.558;7.602;2023-04-06T05:54:29;6.60;;;5.90;;
357;SDS011;167;47.558;7.602;2023-04-06T05:56:55;5.67;;;5.10;;
357;SDS011;167;47.558;7.602;2023-04-06T05:59:21;6.73;;;5.97;;
357;SDS011;167;47.558;7.602;2023-04-06T06:01:48;6.10;;;5.50;;
357;SDS011;167;47.558;7.602;2023-04-06T06:04:14;4.93;;;4.53;;
357;SDS011;167;47.558;7.602;2023-04-06T06:06:40;6.20;;;5.60;;
357;SDS011;167;47.558;7.602;2023-04-06T06:09:06;5.00;;;4.60;;
357;SDS011;167;47.558;7.602;2023-04-06T06:11:32;5.33;;;4.83;;
357;SDS011;167;47.558;7.602;2023-04-06T06:13:58;6.40;;;5.90;;
357;SDS011;167;47.558;7.602;2023-04-06T06:16:24;7.93;;;4.70;;
357;SDS011;167;47.558;7.602;2023-04-06T06:18:50;6.13;;;5.10;;
357;SDS011;167;47.558;7.602;2023-04-06T06:21:16;5.63;;;5.00;;
357;SDS011;167;47.558;7.602;2023-04-06T06:23:42;7.33;;;5.60;;
357;SDS011;167;47.558;7.602;2023-04-06T06:26:08;6.10;;;5.10;;
357;SDS011;167;47.558;7.602;2023-04-06T06:28:34;9.67;;;6.33;;
357;SDS011;167;47.558;7.602;2023-04-06T06:31:01;8.77;;;6.90;;
357;SDS011;167;47.558;7.602;2023-04-06T06:33:27;6.80;;;5.73;;
357;SDS011;167;47.558;7.602;2023-04-06T06:35:53;6.07;;;5.57;;
357;SDS011;167;47.558;7.602;2023-04-06T06:38:19;5.87;;;5.23;;
357;SDS011;167;47.558;7.602;2023-04-06T06:40:45;5.67;;;4.77;;
357;SDS011;167;47.558;7.602;2023-04-06T06:43:12;5.60;;;5.20;;
357;SDS011;167;47.558;7.602;2023-04-06T06:45:38;6.70;;;4.60;;
357;SDS011;167;47.558;7.602;2023-04-06T06:48:04;5.67;;;5.17;;
357;SDS011;167;47.558;7.602;2023-04-06T06:50:29;5.40;;;4.90;;
357;SDS011;167;47.558;7.602;2023-04-06T06:52:56;5.23;;;4.93;;
357;SDS011;167;47.558;7.602;2023-04-06T06:55:21;6.17;;;5.57;;
357;SDS011;167;47.558;7.602;2023-04-06T06:57:47;5.57;;;5.10;;
357;SDS011;167;47.558;7.602;2023-04-06T07:00:13;5.33;;;4.93;;
357;SDS011;167;47.558;7.602;2023-04-06T07:02:40;6.40;;;5.90;;
357;SDS011;167;47.558;7.602;2023-04-06T07:05:06;6.20;;;5.77;;
357;SDS011;167;47.558;7.602;2023-04-06T07:07:32;7.13;;;6.10;;
357;SDS011;167;47.558;7.602;2023-04-06T07:09:59;5.40;;;5.10;;
357;SDS011;167;47.558;7.602;2023-04-06T07:12:25;6.43;;;6.07;;
357;SDS011;167;47.558;7.602;2023-04-06T07:14:51;5.87;;;5.47;;
357;SDS011;167;47.558;7.602;2023-04-06T07:17:17;7.00;;;6.60;;
357;SDS011;167;47.558;7.602;2023-04-06T07:19:43;6.57;;;6.03;;
357;SDS011;167;47.558;7.602;2023-04-06T07:22:10;6.47;;;5.87;;
357;SDS011;167;47.558;7.602;2023-04-06T07:24:35;6.40;;;5.90;;
357;SDS011;167;47.558;7.602;2023-04-06T07:27:01;7.10;;;6.60;;
357;SDS011;167;47.558;7.602;2023-04-06T07:29:27;7.23;;;5.97;;
357;SDS011;167;47.558;7.602;2023-04-06T07:31:54;6.07;;;5.47;;
357;SDS011;167;47.558;7.602;2023-04-06T07:34:20;6.97;;;6.37;;
357;SDS011;167;47.558;7.602;2023-04-06T07:36:46;7.40;;;6.80;;
357;SDS011;167;47.558;7.602;2023-04-06T07:39:12;7.93;;;7.37;;
357;SDS011;167;47.558;7.602;2023-04-06T07:41:38;8.37;;;7.70;;
357;SDS011;167;47.558;7.602;2023-04-06T07:44:04;7.77;;;7.27;;
357;SDS011;167;47.558;7.602;2023-04-06T07:46:30;7.60;;;7.07;;
357;SDS011;167;47.558;7.602;2023-04-06T07:48:56;7.93;;;7.43;;
357;SDS011;167;47.558;7.602;2023-04-06T07:51:23;7.47;;;6.87;;
357;SDS011;167;47.558;7.602;2023-04-06T07:53:50;8.00;;;7.37;;
357;SDS011;167;47.558;7.602;2023-04-06T07:56:16;8.10;;;7.40;;
357;SDS011;167;47.558;7.602;2023-04-06T07:58:43;7.60;;;7.13;;
357;SDS011;167;47.558;7.602;2023-04-06T08:01:09;6.80;;;6.40;;
357;SDS011;167;47.558;7.602;2023-04-06T08:03:35;7.60;;;7.10;;
357;SDS011;167;47.558;7.602;2023-04-06T08:06:01;8.97;;;8.47;;
357;SDS011;167;47.558;7.602;2023-04-06T08:08:27;6.67;;;6.23;;
357;SDS011;167;47.558;7.602;2023-04-06T08:10:53;8.67;;;7.77;;
357;SDS011;167;47.558;7.602;2023-04-06T08:13:19;8.83;;;8.23;;
357;SDS011;167;47.558;7.602;2023-04-06T08:15:46;7.70;;;7.30;;
357;SDS011;167;47.558;7.602;2023-04-06T08:18:12;7.10;;;6.73;;
357;SDS011;167;47.558;7.602;2023-04-06T08:20:38;8.10;;;7.50;;
357;SDS011;167;47.558;7.602;2023-04-06T08:23:04;8.40;;;7.80;;
357;SDS011;167;47.558;7.602;2023-04-06T08:25:31;7.80;;;7.40;;
357;SDS011;167;47.558;7.602;2023-04-06T08:27:57;6.40;;;6.10;;
357;SDS011;167;47.558;7.602;2023-04-06T08:30:23;7.10;;;6.70;;
357;SDS011;167;47.558;7.602;2023-04-06T08:32:49;7.03;;;6.70;;
357;SDS011;167;47.558;7.602;2023-04-06T08:35:15;8.60;;;7.80;;
357;SDS011;167;47.558;7.602;2023-04-06T08:37:41;8.50;;;7.80;;
357;SDS011;167;47.558;7.602;2023-04-06T08:40:07;7.70;;;7.17;;
357;SDS011;167;47.558;7.602;2023-04-06T08:42:33;6.50;;;6.20;;
357;SDS011;167;47.558;7.602;2023-04-06T08:45:05;6.97;;;6.60;;
357;SDS011;167;47.558;7.602;2023-04-06T08:47:31;7.43;;;7.03;;
357;SDS011;167;47.558;7.602;2023-04-06T08:49:57;7.00;;;6.50;;
357;SDS011;167;47.558;7.602;2023-04-06T08:52:24;7.67;;;7.17;;
357;SDS011;167;47.558;7.602;2023-04-06T08:54:50;6.43;;;6.03;;
357;SDS011;167;47.558;7.602;2023-04-06T08:57:16;6.87;;;6.47;;
357;SDS011;167;47.558;7.602;2023-04-06T08:59:44;6.53;;;6.20;;
357;SDS011;167;47.558;7.602;2023-04-06T09:02:12;6.33;;;6.03;;
357;SDS011;167;47.558;7.602;2023-04-06T09:04:42;6.20;;;5.80;;
357;SDS011;167;47.558;7.602;2023-04-06T09:07:08;6.00;;;5.70;;
357;SDS011;167;47.558;7.602;2023-04-06T09:09:34;5.80;;;5.40;;
357;SDS011;167;47.558;7.602;2023-04-06T09:12:00;5.40;;;5.10;;
357;SDS011;167;47.558;7.602;2023-04-06T09:14:37;4.90;;;4.60;;
357;SDS011;167;47.558;7.602;2023-04-06T09:17:04;4.90;;;4.50;;
357;SDS011;167;47.558;7.602;2023-04-06T09:19:30;4.37;;;4.13;;
357;SDS011;167;47.558;7.602;2023-04-06T09:22:05;4.63;;;4.43;;
357;SDS011;167;47.558;7.602;2023-04-06T09:24:44;4.50;;;4.30;;
357;SDS011;167;47.558;7.602;2023-04-06T09:27:10;4.63;;;4.33;;
357;SDS011;167;47.558;7.602;2023-04-06T09:29:36;5.50;;;5.10;;
357;SDS011;167;47.558;7.602;2023-04-06T09:32:07;5.57;;;5.07;;
357;SDS011;167;47.558;7.602;2023-04-06T09:34:36;5.57;;;5.17;;
357;SDS011;167;47.558;7.602;2023-04-06T09:37:13;4.90;;;4.60;;
357;SDS011;167;47.558;7.602;2023-04-06T09:39:39;5.27;;;4.90;;
357;SDS011;167;47.558;7.602;2023-04-06T09:42:05;5.20;;;4.90;;
357;SDS011;167;47.558;7.602;2023-04-06T09:44:31;5.23;;;4.93;;
357;SDS011;167;47.558;7.602;2023-04-06T09:46:57;4.97;;;4.70;;
357;SDS011;167;47.558;7.602;2023-04-06T09:49:23;4.90;;;4.50;;
357;SDS011;167;47.558;7.602;2023-04-06T09:51:58;4.80;;;4.40;;
357;SDS011;167;47.558;7.602;2023-04-06T09:54:26;4.60;;;4.17;;
357;SDS011;167;47.558;7.602;2023-04-06T10:02:07;4.20;;;3.90;;
357;SDS011;167;47.558;7.602;2023-04-06T10:07:00;5.30;;;4.70;;
357;SDS011;167;47.558;7.602;2023-04-06T10:09:28;4.70;;;4.40;;
357;SDS011;167;47.558;7.602;2023-04-06T10:12:01;4.40;;;4.00;;
357;SDS011;167;47.558;7.602;2023-04-06T10:14:27;6.90;;;4.47;;
357;SDS011;167;47.558;7.602;2023-04-06T10:16:53;4.20;;;4.00;;
357;SDS011;167;47.558;7.602;2023-04-06T10:19:24;4.07;;;3.87;;
357;SDS011;167;47.558;7.602;2023-04-06T10:21:53;4.13;;;3.83;;
357;SDS011;167;47.558;7.602;2023-04-06T10:24:20;4.23;;;3.97;;
357;SDS011;167;47.558;7.602;2023-04-06T10:27:07;4.13;;;3.80;;
357;SDS011;167;47.558;7.602;2023-04-06T10:29:45;4.63;;;4.37;;
357;SDS011;167;47.558;7.602;2023-04-06T10:32:13;4.63;;;4.33;;
357;SDS011;167;47.558;7.602;2023-04-06T10:34:39;4.60;;;4.30;;
357;SDS011;167;47.558;7.602;2023-04-06T10:37:15;4.10;;;3.90;;
357;SDS011;167;47.558;7.602;2023-04-06T10:39:47;4.73;;;4.30;;
357;SDS011;167;47.558;7.602;2023-04-06T10:42:13;4.00;;;3.80;;
357;SDS011;167;47.558;7.602;2023-04-06T10:44:42;4.20;;;3.90;;
357;SDS011;167;47.558;7.602;2023-04-06T10:47:15;5.20;;;4.90;;
357;SDS011;167;47.558;7.602;2023-04-06T10:49:41;3.90;;;3.70;;
357;SDS011;167;47.558;7.602;2023-04-06T10:52:08;4.70;;;4.40;;
357;SDS011;167;47.558;7.602;2023-04-06T10:54:34;4.30;;;4.00;;
357;SDS011;167;47.558;7.602;2023-04-06T10:57:02;4.27;;;3.90;;
357;SDS011;167;47.558;7.602;2023-04-06T10:59:29;4.70;;;4.17;;
357;SDS011;167;47.558;7.602;2023-04-06T11:01:55;4.43;;;4.13;;
357;SDS011;167;47.558;7.602;2023-04-06T11:04:21;4.83;;;4.50;;
357;SDS011;167;47.558;7.602;2023-04-06T11:06:48;4.50;;;4.20;;
357;SDS011;167;47.558;7.602;2023-04-06T11:09:49;3.57;;;3.37;;
357;SDS011;167;47.558;7.602;2023-04-06T11:12:07;3.60;;;3.40;;
357;SDS011;167;47.558;7.602;2023-04-06T11:14:33;3.57;;;3.33;;
357;SDS011;167;47.558;7.602;2023-04-06T11:16:59;3.37;;;3.17;;
357;SDS011;167;47.558;7.602;2023-04-06T11:19:25;2.90;;;2.80;;
357;SDS011;167;47.558;7.602;2023-04-06T11:21:52;3.27;;;3.07;;
357;SDS011;167;47.558;7.602;2023-04-06T11:24:22;4.40;;;4.00;;
357;SDS011;167;47.558;7.602;2023-04-06T11:29:17;4.00;;;3.60;;
357;SDS011;167;47.558;7.602;2023-04-06T11:31:59;3.83;;;3.10;;
357;SDS011;167;47.558;7.602;2023-04-06T11:34:26;4.47;;;2.97;;
357;SDS011;167;47.558;7.602;2023-04-06T11:36:54;3.87;;;3.57;;
357;SDS011;167;47.558;7.602;2023-04-06T11:39:22;3.20;;;2.90;;
357;SDS011;167;47.558;7.602;2023-04-06T11:41:58;2.77;;;2.67;;
357;SDS011;167;47.558;7.602;2023-04-06T11:46:57;3.60;;;3.40;;
357;SDS011;167;47.558;7.602;2023-04-06T11:49:26;3.13;;;2.93;;
357;SDS011;167;47.558;7.602;2023-04-06T11:51:53;2.57;;;2.43;;
357;SDS011;167;47.558;7.602;2023-04-06T11:54:29;3.13;;;2.90;;
357;SDS011;167;47.558;7.602;2023-04-06T11:56:55;2.80;;;2.60;;
357;SDS011;167;47.558;7.602;2023-04-06T11:59:21;2.80;;;2.60;;
357;SDS011;167;47.558;7.602;2023-04-06T12:01:47;3.27;;;3.07;;
357;SDS011;167;47.558;7.602;2023-04-06T12:04:14;3.53;;;3.27;;
357;SDS011;167;47.558;7.602;2023-04-06T12:06:40;4.07;;;3.23;;
357;SDS011;167;47.558;7.602;2023-04-06T12:09:06;2.70;;;2.50;;
357;SDS011;167;47.558;7.602;2023-04-06T12:11:32;3.17;;;2.83;;
357;SDS011;167;47.558;7.602;2023-04-06T12:13:58;2.70;;;2.60;;
357;SDS011;167;47.558;7.602;2023-04-06T12:16:26;2.77;;;2.60;;
357;SDS011;167;47.558;7.602;2023-04-06T12:18:52;3.03;;;2.83;;
357;SDS011;167;47.558;7.602;2023-04-06T12:21:18;3.10;;;2.90;;
357;SDS011;167;47.558;7.602;2023-04-06T12:23:44;3.90;;;3.47;;
357;SDS011;167;47.558;7.602;2023-04-06T12:26:10;3.87;;;3.57;;
357;SDS011;167;47.558;7.602;2023-04-06T12:28:36;3.67;;;3.47;;
357;SDS011;167;47.558;7.602;2023-04-06T12:31:02;3.63;;;3.17;;
357;SDS011;167;47.558;7.602;2023-04-06T12:33:28;3.23;;;2.93;;
357;SDS011;167;47.558;7.602;2023-04-06T12:35:54;3.47;;;3.27;;
357;SDS011;167;47.558;7.602;2023-04-06T12:38:21;3.50;;;3.17;;
357;SDS011;167;47.558;7.602;2023-04-06T12:40:47;3.50;;;2.90;;
357;SDS011;167;47.558;7.602;2023-04-06T12:43:13;3.93;;;3.63;;
357;SDS011;167;47.558;7.602;2023-04-06T12:45:39;4.50;;;4.10;;
357;SDS011;167;47.558;7.602;2023-04-06T12:48:05;3.70;;;3.40;;
357;SDS011;167;47.558;7.602;2023-04-06T12:50:32;4.50;;;4.10;;
357;SDS011;167;47.558;7.602;2023-04-06T12:52:58;4.23;;;3.93;;
357;SDS011;167;47.558;7.602;2023-04-06T12:55:24;4.50;;;4.13;;
357;SDS011;167;47.558;7.602;2023-04-06T12:57:50;5.63;;;4.47;;
357;SDS011;167;47.558;7.602;2023-04-06T13:00:16;5.07;;;4.33;;
357;SDS011;167;47.558;7.602;2023-04-06T13:02:42;7.43;;;4.73;;
357;SDS011;167;47.558;7.602;2023-04-06T13:05:11;4.90;;;4.50;;
357;SDS011;167;47.558;7.602;2023-04-06T13:07:38;5.87;;;5.47;;
357;SDS011;167;47.558;7.602;2023-04-06T13:10:04;4.93;;;4.53;;
357;SDS011;167;47.558;7.602;2023-04-06T13:12:30;4.73;;;4.33;;
357;SDS011;167;47.558;7.602;2023-04-06T13:14:56;4.33;;;4.03;;
357;SDS011;167;47.558;7.602;2023-04-06T13:17:22;5.43;;;5.03;;
357;SDS011;167;47.558;7.602;2023-04-06T13:19:48;5.63;;;4.80;;
357;SDS011;167;47.558;7.602;2023-04-06T13:22:14;5.03;;;4.63;;
357;SDS011;167;47.558;7.602;2023-04-06T13:24:40;5.40;;;5.00;;
357;SDS011;167;47.558;7.602;2023-04-06T13:27:06;5.33;;;4.83;;
357;SDS011;167;47.558;7.602;2023-04-06T13:29:32;5.57;;;5.07;;
357;SDS011;167;47.558;7.602;2023-04-06T13:31:59;5.33;;;4.93;;
357;SDS011;167;47.558;7.602;2023-04-06T13:34:25;5.00;;;4.60;;
357;SDS011;167;47.558;7.602;2023-04-06T13:36:51;5.27;;;4.87;;
357;SDS011;167;47.558;7.602;2023-04-06T13:39:17;5.07;;;4.60;;
357;SDS011;167;47.558;7.602;2023-04-06T13:41:43;5.73;;;5.30;;
357;SDS011;167;47.558;7.602;2023-04-06T13:44:09;6.93;;;6.07;;
357;SDS011;167;47.558;7.602;2023-04-06T13:46:35;7.03;;;6.23;;
357;SDS011;167;47.558;7.602;2023-04-06T13:49:02;7.60;;;6.80;;
357;SDS011;167;47.558;7.602;2023-04-06T13:51:28;6.80;;;5.60;;
357;SDS011;167;47.558;7.602;2023-04-06T13:53:54;6.63;;;6.03;;
357;SDS011;167;47.558;7.602;2023-04-06T13:56:20;6.93;;;6.33;;
357;SDS011;167;47.558;7.602;2023-04-06T13:58:46;6.17;;;5.40;;
357;SDS011;167;47.558;7.602;2023-04-06T14:01:12;5.83;;;5.27;;
357;SDS011;167;47.558;7.602;2023-04-06T14:03:38;12.20;;;5.80;;
357;SDS011;167;47.558;7.602;2023-04-06T14:06:13;6.00;;;5.50;;
357;SDS011;167;47.558;7.602;2023-04-06T14:08:39;5.80;;;5.30;;
357;SDS011;167;47.558;7.602;2023-04-06T14:11:06;6.27;;;5.73;;
357;SDS011;167;47.558;7.602;2023-04-06T14:13:33;4.63;;;4.20;;
357;SDS011;167;47.558;7.602;2023-04-06T14:15:59;4.97;;;4.67;;
357;SDS011;167;47.558;7.602;2023-04-06T14:18:25;5.07;;;4.57;;
357;SDS011;167;47.558;7.602;2023-04-06T14:20:55;6.93;;;6.33;;
357;SDS011;167;47.558;7.602;2023-04-06T14:23:22;4.93;;;4.53;;
357;SDS011;167;47.558;7.602;2023-04-06T14:25:48;5.30;;;5.00;;
357;SDS011;167;47.558;7.602;2023-04-06T14:28:14;4.90;;;4.50;;
357;SDS011;167;47.558;7.602;2023-04-06T14:30:41;5.50;;;5.10;;
357;SDS011;167;47.558;7.602;2023-04-06T14:33:07;5.17;;;4.77;;
357;SDS011;167;47.558;7.602;2023-04-06T14:35:33;4.93;;;4.50;;
357;SDS011;167;47.558;7.602;2023-04-06T14:37:59;4.40;;;4.13;;
357;SDS011;167;47.558;7.602;2023-04-06T14:40:27;4.13;;;3.83;;
357;SDS011;167;47.558;7.602;2023-04-06T14:42:53;4.50;;;4.20;;
357;SDS011;167;47.558;7.602;2023-04-06T14:45:21;5.00;;;4.60;;
357;SDS011;167;47.558;7.602;2023-04-06T14:47:47;4.20;;;3.90;;
357;SDS011;167;47.558;7.602;2023-04-06T14:50:13;3.80;;;3.60;;
357;SDS011;167;47.558;7.602;2023-04-06T14:52:39;4.50;;;4.10;;
357;SDS011;167;47.558;7.602;2023-04-06T14:55:05;5.37;;;4.90;;
357;SDS011;167;47.558;7.602;2023-04-06T14:57:31;4.80;;;4.40;;
357;SDS011;167;47.558;7.602;2023-04-06T14:59:58;4.03;;;3.83;;
357;SDS011;167;47.558;7.602;2023-04-06T15:02:24;4.43;;;4.10;;
357;SDS011;167;47.558;7.602;2023-04-06T15:04:50;4.87;;;4.47;;
357;SDS011;167;47.558;7.602;2023-04-06T15:07:16;4.83;;;4.50;;
357;SDS011;167;47.558;7.602;2023-04-06T15:09:42;5.17;;;4.27;;
357;SDS011;167;47.558;7.602;2023-04-06T15:12:08;8.80;;;5.00;;
357;SDS011;167;47.558;7.602;2023-04-06T15:14:34;4.63;;;4.23;;
357;SDS011;167;47.558;7.602;2023-04-06T15:17:00;4.30;;;4.00;;
357;SDS011;167;47.558;7.602;2023-04-06T15:19:26;6.53;;;4.63;;
357;SDS011;167;47.558;7.602;2023-04-06T15:21:52;4.60;;;4.30;;
357;SDS011;167;47.558;7.602;2023-04-06T15:24:18;5.47;;;4.97;;
357;SDS011;167;47.558;7.602;2023-04-06T15:26:44;5.03;;;4.50;;
357;SDS011;167;47.558;7.602;2023-04-06T15:29:10;4.77;;;4.37;;
357;SDS011;167;47.558;7.602;2023-04-06T15:31:36;4.40;;;4.00;;
357;SDS011;167;47.558;7.602;2023-04-06T15:34:04;4.20;;;3.90;;
357;SDS011;167;47.558;7.602;2023-04-06T15:36:32;4.97;;;4.40;;
357;SDS011;167;47.558;7.602;2023-04-06T15:38:58;5.77;;;5.27;;
357;SDS011;167;47.558;7.602;2023-04-06T15:41:24;6.37;;;5.83;;
357;SDS011;167;47.558;7.602;2023-04-06T15:43:50;6.03;;;5.43;;
357;SDS011;167;47.558;7.602;2023-04-06T15:46:17;5.83;;;5.33;;
357;SDS011;167;47.558;7.602;2023-04-06T15:48:43;5.00;;;4.60;;
357;SDS011;167;47.558;7.602;2023-04-06T15:51:09;6.10;;;4.57;;
357;SDS011;167;47.558;7.602;2023-04-06T15:53:35;5.23;;;4.50;;